This is the latest recevied weather packets stored in our database for station/object SA6GOM-3. If no packets are shown the sender has not sent any weather packets the latest 10 day(s).
| Time | Temp. | Humidity | Pressure | Rain* | Wind** | Luminosity | Snow |
|---|---|---|---|---|---|---|---|
| 1777952145 | 4.44° C | 74% | 1010.6 hPa | - | - | - | - |
| 1777948544 | 5.56° C | 74% | 1010.3 hPa | - | - | - | - |
| 1777944944 | 7.22° C | 76% | 1009.9 hPa | - | - | - | - |
| 1777941344 | 8.89° C | 73% | 1010 hPa | - | - | - | - |
| 1777937744 | 8.89° C | 74% | 1009.9 hPa | - | - | - | - |
| 1777934144 | 8.33° C | 76% | 1009.8 hPa | - | - | - | - |
| 1777930544 | 8.33° C | 76% | 1009.8 hPa | - | - | - | - |
| 1777926944 | 9.44° C | 73% | 1009.9 hPa | - | - | - | - |
| 1777923344 | 9.44° C | 71% | 1009.9 hPa | - | - | - | - |
| 1777919744 | 10° C | 66% | 1009.8 hPa | - | - | - | - |
| 1777916144 | 10.56° C | 63% | 1009.6 hPa | - | - | - | - |
| 1777912544 | 11.67° C | 47% | 1009.6 hPa | - | - | - | - |
| 1777908944 | 13.33° C | 39% | 1009.8 hPa | - | - | - | - |
| 1777905344 | 15° C | 39% | 1009.6 hPa | - | - | - | - |
| 1777901743 | 15.56° C | 45% | 1009.3 hPa | - | - | - | - |
| 1777898143 | 17.78° C | 47% | 1008.9 hPa | - | - | - | - |
| 1777894543 | 17.78° C | 44% | 1008.1 hPa | - | - | - | - |
| 1777890943 | 17.78° C | 48% | 1007.9 hPa | - | - | - | - |
| 1777887343 | 18.33° C | 48% | 1007.8 hPa | - | - | - | - |
| 1777883743 | 24.44° C | 36% | 1007.5 hPa | - | - | - | - |
| 1777880143 | 17.22° C | 50% | 1007 hPa | - | - | - | - |
| 1777876543 | 14.44° C | 60% | 1006.7 hPa | - | - | - | - |
| 1777872943 | 13.33° C | 65% | 1006.7 hPa | - | - | - | - |
| 1777869343 | 9.44° C | 77% | 1006.6 hPa | - | - | - | - |
| 1777865743 | 9.44° C | 79% | 1006.8 hPa | - | - | - | - |
* Rain since midnight (hover to see other rain measurements)
** Current wind speed in m/s (hover to see current wind gust speed)